sensor_id;sensor_type;location;lat;lon;timestamp;pressure;altitude;pressure_sealevel;temperature;humidity
20909;BME280;10614;53.198;6.570;2023-03-21T00:01:11;101547.94;;;8.51;100.00
20909;BME280;10614;53.198;6.570;2023-03-21T00:03:12;101540.97;;;8.50;100.00
20909;BME280;10614;53.198;6.570;2023-03-21T00:05:14;101546.22;;;8.50;100.00
20909;BME280;10614;53.198;6.570;2023-03-21T00:07:16;101540.06;;;8.51;100.00
20909;BME280;10614;53.198;6.570;2023-03-21T00:09:17;101544.44;;;8.52;100.00
20909;BME280;10614;53.198;6.570;2023-03-21T00:11:19;101530.47;;;8.50;100.00
20909;BME280;10614;53.198;6.570;2023-03-21T00:13:21;101532.19;;;8.51;100.00
20909;BME280;10614;53.198;6.570;2023-03-21T00:15:22;101540.91;;;8.52;100.00
20909;BME280;10614;53.198;6.570;2023-03-21T00:17:26;101529.56;;;8.51;100.00
20909;BME280;10614;53.198;6.570;2023-03-21T00:19:31;101530.47;;;8.50;100.00
20909;BME280;10614;53.198;6.570;2023-03-21T00:21:37;101532.22;;;8.50;100.00
20909;BME280;10614;53.198;6.570;2023-03-21T00:23:42;101531.34;;;8.51;100.00
20909;BME280;10614;53.198;6.570;2023-03-21T00:25:43;101516.47;;;8.50;100.00
20909;BME280;10614;53.198;6.570;2023-03-21T00:27:45;101518.22;;;8.51;100.00
20909;BME280;10614;53.198;6.570;2023-03-21T00:29:47;101519.06;;;8.51;100.00
20909;BME280;10614;53.198;6.570;2023-03-21T00:31:49;101519.94;;;8.52;100.00
20909;BME280;10614;53.198;6.570;2023-03-21T00:33:52;101516.44;;;8.53;100.00
20909;BME280;10614;53.198;6.570;2023-03-21T00:35:53;101513.81;;;8.53;100.00
20909;BME280;10614;53.198;6.570;2023-03-21T00:37:54;101516.44;;;8.53;100.00
20909;BME280;10614;53.198;6.570;2023-03-21T00:39:56;101513.81;;;8.53;100.00
20909;BME280;10614;53.198;6.570;2023-03-21T00:41:57;101513.81;;;8.53;100.00
20909;BME280;10614;53.198;6.570;2023-03-21T00:43:59;101514.66;;;8.53;100.00
20909;BME280;10614;53.198;6.570;2023-03-21T00:46:01;101508.56;;;8.51;100.00
20909;BME280;10614;53.198;6.570;2023-03-21T00:48:03;101512.94;;;8.52;100.00
20909;BME280;10614;53.198;6.570;2023-03-21T00:50:06;101508.56;;;8.51;100.00
20909;BME280;10614;53.198;6.570;2023-03-21T00:52:08;101506.81;;;8.52;100.00
20909;BME280;10614;53.198;6.570;2023-03-21T00:54:10;101505.06;;;8.52;100.00
20909;BME280;10614;53.198;6.570;2023-03-21T00:56:12;101512.06;;;8.52;100.00
20909;BME280;10614;53.198;6.570;2023-03-21T00:58:14;101502.47;;;8.51;100.00
20909;BME280;10614;53.198;6.570;2023-03-21T01:00:15;101504.19;;;8.52;100.00
20909;BME280;10614;53.198;6.570;2023-03-21T01:02:17;101502.47;;;8.51;100.00
20909;BME280;10614;53.198;6.570;2023-03-21T01:04:21;101499.88;;;8.49;100.00
20909;BME280;10614;53.198;6.570;2023-03-21T01:06:27;101492.84;;;8.50;100.00
20909;BME280;10614;53.198;6.570;2023-03-21T01:08:29;101495.53;;;8.48;100.00
20909;BME280;10614;53.198;6.570;2023-03-21T01:10:30;101497.22;;;8.51;100.00
20909;BME280;10614;53.198;6.570;2023-03-21T01:12:32;101491.97;;;8.51;100.00
20909;BME280;10614;53.198;6.570;2023-03-21T01:14:33;101486.72;;;8.51;100.00
20909;BME280;10614;53.198;6.570;2023-03-21T01:16:35;101491.97;;;8.51;100.00
20909;BME280;10614;53.198;6.570;2023-03-21T01:18:37;101491.97;;;8.51;100.00
20909;BME280;10614;53.198;6.570;2023-03-21T01:20:39;101491.13;;;8.49;100.00
20909;BME280;10614;53.198;6.570;2023-03-21T01:22:42;101494.69;;;8.48;100.00
20909;BME280;10614;53.198;6.570;2023-03-21T01:24:43;101480.66;;;8.47;100.00
20909;BME280;10614;53.198;6.570;2023-03-21T01:26:45;101485.88;;;8.50;100.00
20909;BME280;10614;53.198;6.570;2023-03-21T01:28:46;101483.25;;;8.50;100.00
20909;BME280;10614;53.198;6.570;2023-03-21T01:30:48;101484.97;;;8.51;100.00
20909;BME280;10614;53.198;6.570;2023-03-21T01:32:50;101481.47;;;8.51;100.00
20909;BME280;10614;53.198;6.570;2023-03-21T01:34:52;101478.84;;;8.51;100.00
20909;BME280;10614;53.198;6.570;2023-03-21T01:36:54;101474.50;;;8.50;100.00
20909;BME280;10614;53.198;6.570;2023-03-21T01:38:56;101469.28;;;8.48;100.00
20909;BME280;10614;53.198;6.570;2023-03-21T01:40:59;101477.16;;;8.48;100.00
20909;BME280;10614;53.198;6.570;2023-03-21T01:43:01;101466.69;;;8.48;100.00
20909;BME280;10614;53.198;6.570;2023-03-21T01:45:03;101469.25;;;8.50;100.00
20909;BME280;10614;53.198;6.570;2023-03-21T01:47:05;101464.00;;;8.50;100.00
20909;BME280;10614;53.198;6.570;2023-03-21T01:49:08;101469.25;;;8.50;100.00
20909;BME280;10614;53.198;6.570;2023-03-21T01:51:10;101468.38;;;8.49;100.00
20909;BME280;10614;53.198;6.570;2023-03-21T01:53:12;101475.38;;;8.50;100.00
20909;BME280;10614;53.198;6.570;2023-03-21T01:55:15;101475.38;;;8.50;100.00
20909;BME280;10614;53.198;6.570;2023-03-21T01:57:19;101476.25;;;8.51;100.00
20909;BME280;10614;53.198;6.570;2023-03-21T01:59:23;101470.13;;;8.50;100.00
20909;BME280;10614;53.198;6.570;2023-03-21T02:01:28;101464.88;;;8.50;100.00
20909;BME280;10614;53.198;6.570;2023-03-21T02:03:30;101471.00;;;8.51;100.00
20909;BME280;10614;53.198;6.570;2023-03-21T02:05:38;101465.75;;;8.51;100.00
20909;BME280;10614;53.198;6.570;2023-03-21T02:07:41;101463.97;;;8.51;100.00
20909;BME280;10614;53.198;6.570;2023-03-21T02:09:43;101462.25;;;8.50;100.00
20909;BME280;10614;53.198;6.570;2023-03-21T02:11:47;101460.50;;;8.51;100.00
20909;BME280;10614;53.198;6.570;2023-03-21T02:13:50;101460.50;;;8.51;100.00
20909;BME280;10614;53.198;6.570;2023-03-21T02:15:52;101449.13;;;8.50;100.00
20909;BME280;10614;53.198;6.570;2023-03-21T02:17:57;101450.03;;;8.49;100.00
20909;BME280;10614;53.198;6.570;2023-03-21T02:22:28;101436.84;;;8.52;100.00
20909;BME280;10614;53.198;6.570;2023-03-21T02:24:41;101429.84;;;8.53;100.00
20909;BME280;10614;53.198;6.570;2023-03-21T02:26:54;101432.47;;;8.53;100.00
20909;BME280;10614;53.198;6.570;2023-03-21T02:28:58;101430.72;;;8.52;100.00
20909;BME280;10614;53.198;6.570;2023-03-21T02:31:13;101421.97;;;8.53;100.00
20909;BME280;10614;53.198;6.570;2023-03-21T02:35:45;101424.50;;;8.56;100.00
20909;BME280;10614;53.198;6.570;2023-03-21T02:37:51;101421.03;;;8.55;100.00
20909;BME280;10614;53.198;6.570;2023-03-21T02:39:58;101421.88;;;8.56;100.00
20909;BME280;10614;53.198;6.570;2023-03-21T02:42:02;101420.97;;;8.57;100.00
20909;BME280;10614;53.198;6.570;2023-03-21T02:44:06;101415.72;;;8.57;100.00
20909;BME280;10614;53.198;6.570;2023-03-21T02:46:12;101418.34;;;8.57;100.00
20909;BME280;10614;53.198;6.570;2023-03-21T02:48:18;101422.72;;;8.58;100.00
20909;BME280;10614;53.198;6.570;2023-03-21T02:50:23;101405.22;;;8.58;100.00
20909;BME280;10614;53.198;6.570;2023-03-21T02:52:30;101407.81;;;8.60;100.00
20909;BME280;10614;53.198;6.570;2023-03-21T02:54:33;101413.06;;;8.60;100.00
20909;BME280;10614;53.198;6.570;2023-03-21T02:56:35;101414.78;;;8.61;100.00
20909;BME280;10614;53.198;6.570;2023-03-21T02:58:39;101406.16;;;8.56;100.00
20909;BME280;10614;53.198;6.570;2023-03-21T03:00:41;101402.50;;;8.61;100.00
20909;BME280;10614;53.198;6.570;2023-03-21T03:02:43;101406.88;;;8.62;100.00
20909;BME280;10614;53.198;6.570;2023-03-21T03:04:45;101406.03;;;8.62;100.00
20909;BME280;10614;53.198;6.570;2023-03-21T03:06:52;101402.50;;;8.61;100.00
20909;BME280;10614;53.198;6.570;2023-03-21T03:09:05;101402.50;;;8.61;100.00
20909;BME280;10614;53.198;6.570;2023-03-21T03:11:13;101405.19;;;8.60;100.00
20909;BME280;10614;53.198;6.570;2023-03-21T03:13:25;101409.53;;;8.61;100.00
20909;BME280;10614;53.198;6.570;2023-03-21T03:15:34;101399.03;;;8.61;100.00
20909;BME280;10614;53.198;6.570;2023-03-21T03:17:42;101396.38;;;8.62;100.00
20909;BME280;10614;53.198;6.570;2023-03-21T03:19:51;101405.09;;;8.63;100.00
20909;BME280;10614;53.198;6.570;2023-03-21T03:21:58;101403.31;;;8.65;100.00
20909;BME280;10614;53.198;6.570;2023-03-21T03:24:05;101406.78;;;8.65;100.00
20909;BME280;10614;53.198;6.570;2023-03-21T03:26:09;101407.72;;;8.63;100.00
20909;BME280;10614;53.198;6.570;2023-03-21T03:28:15;101394.59;;;8.63;100.00
20909;BME280;10614;53.198;6.570;2023-03-21T03:30:18;101397.22;;;8.64;100.00
20909;BME280;10614;53.198;6.570;2023-03-21T03:32:20;101393.72;;;8.64;100.00
20909;BME280;10614;53.198;6.570;2023-03-21T03:34:24;101398.97;;;8.64;100.00
20909;BME280;10614;53.198;6.570;2023-03-21T03:36:28;101401.53;;;8.65;100.00
20909;BME280;10614;53.198;6.570;2023-03-21T03:38:30;101398.06;;;8.65;100.00
20909;BME280;10614;53.198;6.570;2023-03-21T03:40:35;101390.19;;;8.65;100.00
20909;BME280;10614;53.198;6.570;2023-03-21T03:42:39;101387.53;;;8.66;100.00
20909;BME280;10614;53.198;6.570;2023-03-21T03:44:45;101378.88;;;8.63;100.00
20909;BME280;10614;53.198;6.570;2023-03-21T03:46:49;101391.88;;;8.68;100.00
20909;BME280;10614;53.198;6.570;2023-03-21T03:48:54;101390.13;;;8.68;100.00
20909;BME280;10614;53.198;6.570;2023-03-21T03:50:56;101395.34;;;8.70;100.00
20909;BME280;10614;53.198;6.570;2023-03-21T03:53:03;101395.34;;;8.70;100.00
20909;BME280;10614;53.198;6.570;2023-03-21T03:55:06;101390.09;;;8.70;100.00
20909;BME280;10614;53.198;6.570;2023-03-21T03:57:10;101388.31;;;8.70;100.00
20909;BME280;10614;53.198;6.570;2023-03-21T03:59:14;101383.06;;;8.70;100.00
20909;BME280;10614;53.198;6.570;2023-03-21T04:01:19;101387.44;;;8.71;100.00
20909;BME280;10614;53.198;6.570;2023-03-21T04:03:21;101391.78;;;8.72;100.00
20909;BME280;10614;53.198;6.570;2023-03-21T04:05:22;101382.13;;;8.73;100.00
20909;BME280;10614;53.198;6.570;2023-03-21T04:07:24;101377.72;;;8.73;100.00
20909;BME280;10614;53.198;6.570;2023-03-21T04:09:26;101374.25;;;8.73;100.00
20909;BME280;10614;53.198;6.570;2023-03-21T04:11:29;101375.09;;;8.73;100.00
20909;BME280;10614;53.198;6.570;2023-03-21T04:13:30;101380.34;;;8.73;100.00
20909;BME280;10614;53.198;6.570;2023-03-21T04:15:32;101377.72;;;8.73;100.00
20909;BME280;10614;53.198;6.570;2023-03-21T04:17:34;101375.09;;;8.73;100.00
20909;BME280;10614;53.198;6.570;2023-03-21T04:19:37;101378.63;;;8.74;100.00
20909;BME280;10614;53.198;6.570;2023-03-21T04:21:38;101373.38;;;8.74;100.00
20909;BME280;10614;53.198;6.570;2023-03-21T04:23:40;101377.72;;;8.75;100.00
20909;BME280;10614;53.198;6.570;2023-03-21T04:25:42;101370.75;;;8.74;100.00
20909;BME280;10614;53.198;6.570;2023-03-21T04:27:44;101380.34;;;8.73;100.00
20909;BME280;10614;53.198;6.570;2023-03-21T04:29:47;101375.09;;;8.73;100.00
20909;BME280;10614;53.198;6.570;2023-03-21T04:31:49;101373.38;;;8.74;100.00
20909;BME280;10614;53.198;6.570;2023-03-21T04:33:51;101375.09;;;8.75;100.00
20909;BME280;10614;53.198;6.570;2023-03-21T04:35:54;101368.97;;;8.74;100.00
20909;BME280;10614;53.198;6.570;2023-03-21T04:37:58;101374.22;;;8.74;100.00
20909;BME280;10614;53.198;6.570;2023-03-21T04:39:59;101365.50;;;8.74;100.00
20909;BME280;10614;53.198;6.570;2023-03-21T04:42:03;101363.72;;;8.74;100.00
20909;BME280;10614;53.198;6.570;2023-03-21T04:44:05;101366.34;;;8.74;100.00
20909;BME280;10614;53.198;6.570;2023-03-21T04:46:06;101363.75;;;8.73;100.00
20909;BME280;10614;53.198;6.570;2023-03-21T04:48:08;101362.88;;;8.74;100.00
20909;BME280;10614;53.198;6.570;2023-03-21T04:50:11;101366.38;;;8.73;100.00
20909;BME280;10614;53.198;6.570;2023-03-21T04:52:13;101356.75;;;8.73;100.00
20909;BME280;10614;53.198;6.570;2023-03-21T04:54:14;101362.03;;;8.72;100.00
20909;BME280;10614;53.198;6.570;2023-03-21T04:56:16;101353.31;;;8.71;100.00
20909;BME280;10614;53.198;6.570;2023-03-21T04:58:18;101358.56;;;8.71;100.00
20909;BME280;10614;53.198;6.570;2023-03-21T05:00:19;101359.41;;;8.72;100.00
20909;BME280;10614;53.198;6.570;2023-03-21T05:02:22;101348.91;;;8.72;100.00
20909;BME280;10614;53.198;6.570;2023-03-21T05:04:23;101344.53;;;8.72;100.00
20909;BME280;10614;53.198;6.570;2023-03-21T05:06:26;101344.53;;;8.72;100.00
20909;BME280;10614;53.198;6.570;2023-03-21T05:08:28;101351.50;;;8.73;100.00
20909;BME280;10614;53.198;6.570;2023-03-21T05:10:29;101345.38;;;8.73;100.00
20909;BME280;10614;53.198;6.570;2023-03-21T05:12:31;101338.34;;;8.75;100.00
20909;BME280;10614;53.198;6.570;2023-03-21T05:14:32;101338.38;;;8.73;100.00
20909;BME280;10614;53.198;6.570;2023-03-21T05:16:34;101345.44;;;8.71;100.00
20909;BME280;10614;53.198;6.570;2023-03-21T05:18:37;101337.56;;;8.71;100.00
20909;BME280;10614;53.198;6.570;2023-03-21T05:20:39;101345.44;;;8.71;100.00
20909;BME280;10614;53.198;6.570;2023-03-21T05:22:44;101338.41;;;8.72;100.00
20909;BME280;10614;53.198;6.570;2023-03-21T05:24:49;101342.81;;;8.71;100.00
20909;BME280;10614;53.198;6.570;2023-03-21T05:26:51;101341.94;;;8.71;100.00
20909;BME280;10614;53.198;6.570;2023-03-21T05:28:55;101334.94;;;8.71;100.00
20909;BME280;10614;53.198;6.570;2023-03-21T05:30:56;101341.94;;;8.71;100.00
20909;BME280;10614;53.198;6.570;2023-03-21T05:32:58;101333.19;;;8.70;100.00
20909;BME280;10614;53.198;6.570;2023-03-21T05:34:59;101338.41;;;8.72;100.00
20909;BME280;10614;53.198;6.570;2023-03-21T05:37:01;101344.53;;;8.72;100.00
20909;BME280;10614;53.198;6.570;2023-03-21T05:39:04;101341.00;;;8.73;100.00
20909;BME280;10614;53.198;6.570;2023-03-21T05:41:06;101334.88;;;8.73;100.00
20909;BME280;10614;53.198;6.570;2023-03-21T05:43:07;101337.50;;;8.73;100.00
20909;BME280;10614;53.198;6.570;2023-03-21T05:45:09;101335.75;;;8.73;100.00
20909;BME280;10614;53.198;6.570;2023-03-21T05:47:11;101333.13;;;8.73;100.00
20909;BME280;10614;53.198;6.570;2023-03-21T05:49:13;101328.75;;;8.74;100.00
20909;BME280;10614;53.198;6.570;2023-03-21T05:51:15;101329.59;;;8.74;100.00
20909;BME280;10614;53.198;6.570;2023-03-21T05:53:17;101331.31;;;8.75;100.00
20909;BME280;10614;53.198;6.570;2023-03-21T05:55:19;101325.22;;;8.75;100.00
20909;BME280;10614;53.198;6.570;2023-03-21T05:57:21;101325.19;;;8.76;100.00
20909;BME280;10614;53.198;6.570;2023-03-21T05:59:23;101329.59;;;8.76;100.00
20909;BME280;10614;53.198;6.570;2023-03-21T06:01:24;101324.34;;;8.76;100.00
20909;BME280;10614;53.198;6.570;2023-03-21T06:03:26;101324.34;;;8.76;100.00
20909;BME280;10614;53.198;6.570;2023-03-21T06:05:27;101329.59;;;8.76;100.00
20909;BME280;10614;53.198;6.570;2023-03-21T06:07:29;101323.41;;;8.78;100.00
20909;BME280;10614;53.198;6.570;2023-03-21T06:09:30;101328.66;;;8.78;100.00
20909;BME280;10614;53.198;6.570;2023-03-21T06:11:34;101328.66;;;8.77;100.00
20909;BME280;10614;53.198;6.570;2023-03-21T06:13:36;101329.59;;;8.76;100.00
20909;BME280;10614;53.198;6.570;2023-03-21T06:15:38;101332.22;;;8.76;100.00
20909;BME280;10614;53.198;6.570;2023-03-21T06:17:40;101326.97;;;8.76;100.00
20909;BME280;10614;53.198;6.570;2023-03-21T06:19:42;101325.13;;;8.78;100.00
20909;BME280;10614;53.198;6.570;2023-03-21T06:21:44;101324.28;;;8.77;100.00
20909;BME280;10614;53.198;6.570;2023-03-21T06:23:46;101324.28;;;8.77;100.00
20909;BME280;10614;53.198;6.570;2023-03-21T06:25:50;101325.13;;;8.78;100.00
20909;BME280;10614;53.198;6.570;2023-03-21T06:27:53;101332.13;;;8.79;100.00
20909;BME280;10614;53.198;6.570;2023-03-21T06:29:54;101330.34;;;8.79;100.00
20909;BME280;10614;53.198;6.570;2023-03-21T06:31:57;101327.72;;;8.79;100.00
20909;BME280;10614;53.198;6.570;2023-03-21T06:33:59;101331.22;;;8.80;100.00
20909;BME280;10614;53.198;6.570;2023-03-21T06:36:01;101327.72;;;8.79;100.00
20909;BME280;10614;53.198;6.570;2023-03-21T06:38:02;101332.97;;;8.79;100.00
20909;BME280;10614;53.198;6.570;2023-03-21T06:40:04;101324.22;;;8.80;100.00
20909;BME280;10614;53.198;6.570;2023-03-21T06:42:08;101326.84;;;8.80;100.00
20909;BME280;10614;53.198;6.570;2023-03-21T06:44:12;101328.56;;;8.81;100.00
20909;BME280;10614;53.198;6.570;2023-03-21T06:46:13;101325.97;;;8.80;100.00
20909;BME280;10614;53.198;6.570;2023-03-21T06:48:14;101325.94;;;8.81;100.00
20909;BME280;10614;53.198;6.570;2023-03-21T06:50:16;101322.38;;;8.82;100.00
20909;BME280;10614;53.198;6.570;2023-03-21T06:52:18;101328.53;;;8.83;100.00
20909;BME280;10614;53.198;6.570;2023-03-21T06:54:20;101329.34;;;8.85;100.00
20909;BME280;10614;53.198;6.570;2023-03-21T06:56:21;101322.38;;;8.84;100.00
20909;BME280;10614;53.198;6.570;2023-03-21T06:58:23;101324.09;;;8.85;100.00
20909;BME280;10614;53.198;6.570;2023-03-21T07:00:27;101331.06;;;8.86;100.00
20909;BME280;10614;53.198;6.570;2023-03-21T07:02:29;101324.09;;;8.85;100.00
20909;BME280;10614;53.198;6.570;2023-03-21T07:04:31;101329.34;;;8.85;100.00
20909;BME280;10614;53.198;6.570;2023-03-21T07:06:32;101324.97;;;8.85;100.00
20909;BME280;10614;53.198;6.570;2023-03-21T07:08:34;101332.84;;;8.85;100.00
20909;BME280;10614;53.198;6.570;2023-03-21T07:10:37;101329.28;;;8.86;100.00
20909;BME280;10614;53.198;6.570;2023-03-21T07:12:39;101331.91;;;8.88;100.00
20909;BME280;10614;53.198;6.570;2023-03-21T07:14:40;101328.41;;;8.87;100.00
20909;BME280;10614;53.198;6.570;2023-03-21T07:16:44;101335.38;;;8.88;100.00
20909;BME280;10614;53.198;6.570;2023-03-21T07:18:46;101336.28;;;8.87;100.00
20909;BME280;10614;53.198;6.570;2023-03-21T07:20:48;101334.47;;;8.90;100.00
20909;BME280;10614;53.198;6.570;2023-03-21T07:22:50;101334.47;;;8.90;100.00
20909;BME280;10614;53.198;6.570;2023-03-21T07:24:53;101331.81;;;8.91;100.00
20909;BME280;10614;53.198;6.570;2023-03-21T07:26:55;101336.19;;;8.91;100.00
20909;BME280;10614;53.198;6.570;2023-03-21T07:28:56;101330.94;;;8.91;100.00
20909;BME280;10614;53.198;6.570;2023-03-21T07:30:58;101331.84;;;8.90;100.00
20909;BME280;10614;53.198;6.570;2023-03-21T07:33:04;101333.56;;;8.91;100.00
20909;BME280;10614;53.198;6.570;2023-03-21T07:35:06;101336.19;;;8.91;100.00
20909;BME280;10614;53.198;6.570;2023-03-21T07:37:09;101335.28;;;8.92;100.00
20909;BME280;10614;53.198;6.570;2023-03-21T07:39:10;101337.03;;;8.93;100.00
20909;BME280;10614;53.198;6.570;2023-03-21T07:41:12;101331.78;;;8.93;100.00
20909;BME280;10614;53.198;6.570;2023-03-21T07:43:13;101338.75;;;8.94;100.00
20909;BME280;10614;53.198;6.570;2023-03-21T07:45:15;101332.59;;;8.95;100.00
20909;BME280;10614;53.198;6.570;2023-03-21T07:47:20;101323.81;;;8.96;100.00
20909;BME280;10614;53.198;6.570;2023-03-21T07:49:24;101332.53;;;8.96;100.00
20909;BME280;10614;53.198;6.570;2023-03-21T07:51:25;101331.69;;;8.96;100.00
20909;BME280;10614;53.198;6.570;2023-03-21T07:53:27;101337.78;;;8.98;100.00
20909;BME280;10614;53.198;6.570;2023-03-21T07:55:31;101333.38;;;8.98;100.00
20909;BME280;10614;53.198;6.570;2023-03-21T07:57:33;101330.75;;;8.98;100.00
20909;BME280;10614;53.198;6.570;2023-03-21T07:59:35;101335.06;;;9.01;100.00
20909;BME280;10614;53.198;6.570;2023-03-21T08:01:37;101334.19;;;9.00;100.00
20909;BME280;10614;53.198;6.570;2023-03-21T08:03:38;101331.56;;;9.02;100.00
20909;BME280;10614;53.198;6.570;2023-03-21T08:05:42;101324.56;;;9.01;100.00
20909;BME280;10614;53.198;6.570;2023-03-21T08:07:44;101332.41;;;9.02;100.00
20909;BME280;10614;53.198;6.570;2023-03-21T08:09:46;101331.56;;;9.00;100.00
20909;BME280;10614;53.198;6.570;2023-03-21T08:11:48;101322.81;;;9.01;100.00
20909;BME280;10614;53.198;6.570;2023-03-21T08:13:49;101323.69;;;9.00;100.00
20909;BME280;10614;53.198;6.570;2023-03-21T08:15:51;101329.75;;;9.04;100.00
20909;BME280;10614;53.198;6.570;2023-03-21T08:17:53;101320.97;;;9.05;100.00
20909;BME280;10614;53.198;6.570;2023-03-21T08:19:54;101321.78;;;9.07;100.00
20909;BME280;10614;53.198;6.570;2023-03-21T08:21:58;101320.88;;;9.08;100.00
20909;BME280;10614;53.198;6.570;2023-03-21T08:24:00;101324.41;;;9.07;100.00
20909;BME280;10614;53.198;6.570;2023-03-21T08:26:01;101318.25;;;9.08;100.00
20909;BME280;10614;53.198;6.570;2023-03-21T08:28:03;101316.53;;;9.07;100.00
20909;BME280;10614;53.198;6.570;2023-03-21T08:30:05;101315.63;;;9.08;100.00
20909;BME280;10614;53.198;6.570;2023-03-21T08:32:07;101312.13;;;9.07;100.00
20909;BME280;10614;53.198;6.570;2023-03-21T08:34:10;101319.16;;;9.07;100.00
20909;BME280;10614;53.198;6.570;2023-03-21T08:36:12;101316.53;;;9.07;100.00
20909;BME280;10614;53.198;6.570;2023-03-21T08:38:16;101316.50;;;9.08;100.00
20909;BME280;10614;53.198;6.570;2023-03-21T08:40:18;101309.47;;;9.09;100.00
20909;BME280;10614;53.198;6.570;2023-03-21T08:42:20;101315.59;;;9.09;100.00
20909;BME280;10614;53.198;6.570;2023-03-21T08:44:22;101314.66;;;9.11;100.00
20909;BME280;10614;53.198;6.570;2023-03-21T08:46:25;101318.22;;;9.09;100.00
20909;BME280;10614;53.198;6.570;2023-03-21T08:48:26;101320.84;;;9.09;100.00
20909;BME280;10614;53.198;6.570;2023-03-21T08:50:28;101315.56;;;9.11;100.00
20909;BME280;10614;53.198;6.570;2023-03-21T08:52:30;101313.78;;;9.12;100.00
20909;BME280;10614;53.198;6.570;2023-03-21T08:54:33;101305.06;;;9.11;100.00
20909;BME280;10614;53.198;6.570;2023-03-21T08:56:35;101312.00;;;9.12;100.00
20909;BME280;10614;53.198;6.570;2023-03-21T08:58:36;101312.00;;;9.12;100.00
20909;BME280;10614;53.198;6.570;2023-03-21T09:00:38;101315.50;;;9.13;100.00
20909;BME280;10614;53.198;6.570;2023-03-21T09:02:40;101311.13;;;9.13;100.00
20909;BME280;10614;53.198;6.570;2023-03-21T09:04:42;101313.75;;;9.13;100.00
20909;BME280;10614;53.198;6.570;2023-03-21T09:06:44;101311.06;;;9.15;100.00
20909;BME280;10614;53.198;6.570;2023-03-21T09:08:48;101306.72;;;9.14;100.00
20909;BME280;10614;53.198;6.570;2023-03-21T09:10:54;101309.28;;;9.15;100.00
20909;BME280;10614;53.198;6.570;2023-03-21T09:12:55;101301.41;;;9.15;100.00
20909;BME280;10614;53.198;6.570;2023-03-21T09:14:57;101311.06;;;9.15;100.00
20909;BME280;10614;53.198;6.570;2023-03-21T09:17:01;101301.41;;;9.15;100.00
20909;BME280;10614;53.198;6.570;2023-03-21T09:19:03;101298.00;;;9.13;100.00
20909;BME280;10614;53.198;6.570;2023-03-21T09:21:07;101293.72;;;9.09;100.00
20909;BME280;10614;53.198;6.570;2023-03-21T09:23:12;101292.78;;;9.12;100.00
20909;BME280;10614;53.198;6.570;2023-03-21T09:25:14;101293.59;;;9.14;100.00
20909;BME280;10614;53.198;6.570;2023-03-21T09:27:17;101289.19;;;9.14;100.00
20909;BME280;10614;53.198;6.570;2023-03-21T09:29:22;101284.03;;;9.11;100.00
20909;BME280;10614;53.198;6.570;2023-03-21T09:31:24;101283.16;;;9.11;100.00
20909;BME280;10614;53.198;6.570;2023-03-21T09:33:27;101291.03;;;9.11;100.00
20909;BME280;10614;53.198;6.570;2023-03-21T09:35:29;101291.00;;;9.12;100.00
20909;BME280;10614;53.198;6.570;2023-03-21T09:37:30;101282.28;;;9.12;100.00
20909;BME280;10614;53.198;6.570;2023-03-21T09:39:32;101284.03;;;9.11;100.00
20909;BME280;10614;53.198;6.570;2023-03-21T09:41:37;101291.00;;;9.12;100.00
20909;BME280;10614;53.198;6.570;2023-03-21T09:43:44;101279.63;;;9.13;100.00
20909;BME280;10614;53.198;6.570;2023-03-21T09:45:50;101296.25;;;9.12;100.00
20909;BME280;10614;53.198;6.570;2023-03-21T09:47:55;101289.19;;;9.14;100.00
20909;BME280;10614;53.198;6.570;2023-03-21T09:49:57;101296.16;;;9.15;100.00
20909;BME280;10614;53.198;6.570;2023-03-21T09:52:03;101284.88;;;9.13;100.00
20909;BME280;10614;53.198;6.570;2023-03-21T09:54:11;101279.66;;;9.10;100.00
20909;BME280;10614;53.198;6.570;2023-03-21T09:56:14;101284.03;;;9.11;100.00
20909;BME280;10614;53.198;6.570;2023-03-21T09:58:19;101278.72;;;9.13;100.00
20909;BME280;10614;53.198;6.570;2023-03-21T10:00:29;101283.03;;;9.15;100.00
20909;BME280;10614;53.198;6.570;2023-03-21T10:02:35;101282.19;;;9.15;100.00
20909;BME280;10614;53.198;6.570;2023-03-21T10:04:37;101284.81;;;9.15;100.00
20909;BME280;10614;53.198;6.570;2023-03-21T10:06:39;101276.88;;;9.18;100.00
20909;BME280;10614;53.198;6.570;2023-03-21T10:08:42;101277.84;;;9.14;100.00
20909;BME280;10614;53.198;6.570;2023-03-21T10:10:46;101271.75;;;9.12;100.00
20909;BME280;10614;53.198;6.570;2023-03-21T10:12:49;101278.72;;;9.13;100.00
20909;BME280;10614;53.198;6.570;2023-03-21T10:14:53;101272.53;;;9.15;100.00
20909;BME280;10614;53.198;6.570;2023-03-21T10:17:00;101280.41;;;9.15;100.00
20909;BME280;10614;53.198;6.570;2023-03-21T10:19:08;101273.47;;;9.13;100.00
20909;BME280;10614;53.198;6.570;2023-03-21T10:21:12;101270.81;;;9.14;100.00
20909;BME280;10614;53.198;6.570;2023-03-21T10:23:18;101272.53;;;9.15;100.00
20909;BME280;10614;53.198;6.570;2023-03-21T10:25:23;101275.09;;;9.18;100.00
20909;BME280;10614;53.198;6.570;2023-03-21T10:27:27;101268.09;;;9.17;100.00
20909;BME280;10614;53.198;6.570;2023-03-21T10:29:29;101271.63;;;9.16;100.00
20909;BME280;10614;53.198;6.570;2023-03-21T10:31:32;101265.53;;;9.16;100.00
20909;BME280;10614;53.198;6.570;2023-03-21T10:33:38;101267.25;;;9.17;100.00
20909;BME280;10614;53.198;6.570;2023-03-21T10:35:40;101262.84;;;9.17;100.00
20909;BME280;10614;53.198;6.570;2023-03-21T10:37:44;101260.19;;;9.19;100.00
20909;BME280;10614;53.198;6.570;2023-03-21T10:39:45;101260.16;;;9.20;100.00
20909;BME280;10614;53.198;6.570;2023-03-21T10:41:49;101261.91;;;9.20;100.00
20909;BME280;10614;53.198;6.570;2023-03-21T10:44:03;101253.16;;;9.19;100.00
20909;BME280;10614;53.198;6.570;2023-03-21T10:46:06;101259.25;;;9.21;100.00
20909;BME280;10614;53.198;6.570;2023-03-21T10:48:08;101257.47;;;9.22;100.00